sensor_id;sensor_type;location;lat;lon;timestamp;P1;durP1;ratioP1;P2;durP2;ratioP2
41865;SDS011;27539;43.222;27.558;2023-04-03T00:00:28;1.85;;;1.75;;
41865;SDS011;27539;43.222;27.558;2023-04-03T00:02:54;2.33;;;2.08;;
41865;SDS011;27539;43.222;27.558;2023-04-03T00:05:20;2.63;;;1.58;;
41865;SDS011;27539;43.222;27.558;2023-04-03T00:07:45;11.82;;;2.42;;
41865;SDS011;27539;43.222;27.558;2023-04-03T00:10:11;3.13;;;2.38;;
41865;SDS011;27539;43.222;27.558;2023-04-03T00:12:37;1.23;;;1.15;;
41865;SDS011;27539;43.222;27.558;2023-04-03T00:15:03;3.03;;;1.42;;
41865;SDS011;27539;43.222;27.558;2023-04-03T00:17:28;2.00;;;1.25;;
41865;SDS011;27539;43.222;27.558;2023-04-03T00:19:54;6.68;;;3.60;;
41865;SDS011;27539;43.222;27.558;2023-04-03T00:22:19;6.72;;;3.55;;
41865;SDS011;27539;43.222;27.558;2023-04-03T00:24:45;3.95;;;1.77;;
41865;SDS011;27539;43.222;27.558;2023-04-03T00:27:10;2.45;;;2.25;;
41865;SDS011;27539;43.222;27.558;2023-04-03T00:29:36;2.60;;;2.40;;
41865;SDS011;27539;43.222;27.558;2023-04-03T00:32:01;3.50;;;1.52;;
41865;SDS011;27539;43.222;27.558;2023-04-03T00:34:27;3.28;;;2.13;;
41865;SDS011;27539;43.222;27.558;2023-04-03T00:36:53;1.52;;;1.30;;
41865;SDS011;27539;43.222;27.558;2023-04-03T00:39:18;5.07;;;2.38;;
41865;SDS011;27539;43.222;27.558;2023-04-03T00:41:43;3.20;;;2.25;;
41865;SDS011;27539;43.222;27.558;2023-04-03T00:44:22;2.30;;;1.20;;
41865;SDS011;27539;43.222;27.558;2023-04-03T00:46:53;2.92;;;2.25;;
41865;SDS011;27539;43.222;27.558;2023-04-03T00:49:19;1.45;;;1.35;;
41865;SDS011;27539;43.222;27.558;2023-04-03T00:51:45;1.73;;;1.63;;
41865;SDS011;27539;43.222;27.558;2023-04-03T00:54:11;4.10;;;2.00;;
41865;SDS011;27539;43.222;27.558;2023-04-03T00:56:37;3.60;;;2.30;;
41865;SDS011;27539;43.222;27.558;2023-04-03T00:59:04;1.67;;;1.57;;
41865;SDS011;27539;43.222;27.558;2023-04-03T01:01:33;4.65;;;1.70;;
41865;SDS011;27539;43.222;27.558;2023-04-03T01:04:00;1.55;;;1.45;;
41865;SDS011;27539;43.222;27.558;2023-04-03T01:06:29;1.38;;;1.15;;
41865;SDS011;27539;43.222;27.558;2023-04-03T01:08:57;2.85;;;2.22;;
41865;SDS011;27539;43.222;27.558;2023-04-03T01:11:24;2.45;;;1.35;;
41865;SDS011;27539;43.222;27.558;2023-04-03T01:13:51;2.45;;;1.40;;
41865;SDS011;27539;43.222;27.558;2023-04-03T01:16:17;0.82;;;0.82;;
41865;SDS011;27539;43.222;27.558;2023-04-03T01:18:43;1.13;;;1.08;;
41865;SDS011;27539;43.222;27.558;2023-04-03T01:26:24;2.85;;;1.30;;
41865;SDS011;27539;43.222;27.558;2023-04-03T01:28:50;0.60;;;0.60;;
41865;SDS011;27539;43.222;27.558;2023-04-03T01:31:20;2.00;;;1.85;;
41865;SDS011;27539;43.222;27.558;2023-04-03T01:33:50;1.98;;;1.35;;
41865;SDS011;27539;43.222;27.558;2023-04-03T01:36:21;7.10;;;1.25;;
41865;SDS011;27539;43.222;27.558;2023-04-03T01:38:52;1.23;;;1.10;;
41865;SDS011;27539;43.222;27.558;2023-04-03T01:41:18;1.02;;;1.02;;
41865;SDS011;27539;43.222;27.558;2023-04-03T01:43:46;1.35;;;0.40;;
41865;SDS011;27539;43.222;27.558;2023-04-03T01:46:13;0.75;;;0.75;;
41865;SDS011;27539;43.222;27.558;2023-04-03T01:48:38;1.95;;;0.93;;
41865;SDS011;27539;43.222;27.558;2023-04-03T01:51:04;1.52;;;1.17;;
41865;SDS011;27539;43.222;27.558;2023-04-03T01:53:30;7.75;;;1.50;;
41865;SDS011;27539;43.222;27.558;2023-04-03T01:55:55;5.75;;;1.90;;
41865;SDS011;27539;43.222;27.558;2023-04-03T01:58:21;1.48;;;1.27;;
41865;SDS011;27539;43.222;27.558;2023-04-03T02:00:46;0.90;;;0.85;;
41865;SDS011;27539;43.222;27.558;2023-04-03T02:03:12;1.97;;;1.50;;
41865;SDS011;27539;43.222;27.558;2023-04-03T02:05:38;3.22;;;2.33;;
41865;SDS011;27539;43.222;27.558;2023-04-03T02:08:03;1.98;;;1.38;;
41865;SDS011;27539;43.222;27.558;2023-04-03T02:10:29;1.40;;;1.20;;
41865;SDS011;27539;43.222;27.558;2023-04-03T02:12:55;3.15;;;1.88;;
41865;SDS011;27539;43.222;27.558;2023-04-03T02:15:20;2.17;;;0.73;;
41865;SDS011;27539;43.222;27.558;2023-04-03T02:17:46;3.93;;;2.37;;
41865;SDS011;27539;43.222;27.558;2023-04-03T02:20:11;2.47;;;1.90;;
41865;SDS011;27539;43.222;27.558;2023-04-03T02:22:37;1.63;;;1.52;;
41865;SDS011;27539;43.222;27.558;2023-04-03T02:25:02;1.58;;;1.30;;
41865;SDS011;27539;43.222;27.558;2023-04-03T02:27:28;1.55;;;1.45;;
41865;SDS011;27539;43.222;27.558;2023-04-03T02:29:54;1.63;;;1.53;;
41865;SDS011;27539;43.222;27.558;2023-04-03T02:32:19;3.03;;;1.42;;
41865;SDS011;27539;43.222;27.558;2023-04-03T02:34:45;1.33;;;1.30;;
41865;SDS011;27539;43.222;27.558;2023-04-03T02:37:10;8.88;;;3.55;;
41865;SDS011;27539;43.222;27.558;2023-04-03T02:39:36;10.05;;;3.72;;
41865;SDS011;27539;43.222;27.558;2023-04-03T02:42:01;8.17;;;3.13;;
41865;SDS011;27539;43.222;27.558;2023-04-03T02:44:26;10.43;;;1.33;;
41865;SDS011;27539;43.222;27.558;2023-04-03T02:46:52;1.95;;;1.45;;
41865;SDS011;27539;43.222;27.558;2023-04-03T02:49:17;1.40;;;1.23;;
41865;SDS011;27539;43.222;27.558;2023-04-03T02:51:43;4.18;;;2.13;;
41865;SDS011;27539;43.222;27.558;2023-04-03T02:54:08;4.18;;;2.28;;
41865;SDS011;27539;43.222;27.558;2023-04-03T02:56:34;3.47;;;1.80;;
41865;SDS011;27539;43.222;27.558;2023-04-03T02:59:00;1.60;;;1.50;;
41865;SDS011;27539;43.222;27.558;2023-04-03T03:01:25;2.58;;;1.77;;
41865;SDS011;27539;43.222;27.558;2023-04-03T03:03:53;3.75;;;2.42;;
41865;SDS011;27539;43.222;27.558;2023-04-03T03:06:19;5.43;;;1.55;;
41865;SDS011;27539;43.222;27.558;2023-04-03T03:08:44;1.55;;;1.05;;
41865;SDS011;27539;43.222;27.558;2023-04-03T03:11:10;2.10;;;1.08;;
41865;SDS011;27539;43.222;27.558;2023-04-03T03:13:36;1.30;;;1.23;;
41865;SDS011;27539;43.222;27.558;2023-04-03T03:16:02;2.23;;;2.03;;
41865;SDS011;27539;43.222;27.558;2023-04-03T03:18:27;8.00;;;2.75;;
41865;SDS011;27539;43.222;27.558;2023-04-03T03:20:54;5.80;;;1.80;;
41865;SDS011;27539;43.222;27.558;2023-04-03T03:23:21;1.42;;;1.35;;
41865;SDS011;27539;43.222;27.558;2023-04-03T03:28:13;1.10;;;1.00;;
41865;SDS011;27539;43.222;27.558;2023-04-03T03:30:39;2.22;;;1.48;;
41865;SDS011;27539;43.222;27.558;2023-04-03T03:33:04;2.03;;;1.83;;
41865;SDS011;27539;43.222;27.558;2023-04-03T03:35:30;3.43;;;2.07;;
41865;SDS011;27539;43.222;27.558;2023-04-03T03:37:55;18.57;;;1.97;;
41865;SDS011;27539;43.222;27.558;2023-04-03T03:40:20;1.27;;;1.13;;
41865;SDS011;27539;43.222;27.558;2023-04-03T03:42:46;5.07;;;1.55;;
41865;SDS011;27539;43.222;27.558;2023-04-03T03:45:12;7.43;;;3.13;;
41865;SDS011;27539;43.222;27.558;2023-04-03T03:47:37;7.93;;;2.73;;
41865;SDS011;27539;43.222;27.558;2023-04-03T03:50:03;7.22;;;2.83;;
41865;SDS011;27539;43.222;27.558;2023-04-03T03:52:28;2.57;;;1.63;;
41865;SDS011;27539;43.222;27.558;2023-04-03T03:54:55;1.73;;;1.63;;
41865;SDS011;27539;43.222;27.558;2023-04-03T03:57:21;1.48;;;1.38;;
41865;SDS011;27539;43.222;27.558;2023-04-03T03:59:46;7.67;;;1.67;;
41865;SDS011;27539;43.222;27.558;2023-04-03T04:02:13;1.80;;;1.08;;
41865;SDS011;27539;43.222;27.558;2023-04-03T04:04:39;2.77;;;2.37;;
41865;SDS011;27539;43.222;27.558;2023-04-03T04:07:04;2.37;;;1.70;;
41865;SDS011;27539;43.222;27.558;2023-04-03T04:09:30;1.30;;;1.20;;
41865;SDS011;27539;43.222;27.558;2023-04-03T04:11:55;4.23;;;2.47;;
41865;SDS011;27539;43.222;27.558;2023-04-03T04:14:21;2.70;;;1.83;;
41865;SDS011;27539;43.222;27.558;2023-04-03T04:16:47;1.77;;;1.20;;
41865;SDS011;27539;43.222;27.558;2023-04-03T04:19:12;1.33;;;1.27;;
41865;SDS011;27539;43.222;27.558;2023-04-03T04:21:38;1.30;;;1.20;;
41865;SDS011;27539;43.222;27.558;2023-04-03T04:24:04;0.35;;;0.35;;
41865;SDS011;27539;43.222;27.558;2023-04-03T04:26:30;0.93;;;0.93;;
41865;SDS011;27539;43.222;27.558;2023-04-03T04:28:56;1.23;;;0.95;;
41865;SDS011;27539;43.222;27.558;2023-04-03T04:31:21;1.20;;;1.10;;
41865;SDS011;27539;43.222;27.558;2023-04-03T04:33:47;0.70;;;0.70;;
41865;SDS011;27539;43.222;27.558;2023-04-03T04:36:12;1.63;;;1.03;;
41865;SDS011;27539;43.222;27.558;2023-04-03T04:41:05;2.85;;;1.27;;
41865;SDS011;27539;43.222;27.558;2023-04-03T04:43:30;0.95;;;0.95;;
41865;SDS011;27539;43.222;27.558;2023-04-03T04:48:31;0.30;;;0.30;;
41865;SDS011;27539;43.222;27.558;2023-04-03T04:50:57;0.82;;;0.57;;
41865;SDS011;27539;43.222;27.558;2023-04-03T04:53:23;0.93;;;0.93;;
41865;SDS011;27539;43.222;27.558;2023-04-03T04:55:48;0.40;;;0.40;;
41865;SDS011;27539;43.222;27.558;2023-04-03T04:58:14;0.75;;;0.73;;
41865;SDS011;27539;43.222;27.558;2023-04-03T05:00:40;1.10;;;1.00;;
41865;SDS011;27539;43.222;27.558;2023-04-03T05:03:05;0.65;;;0.65;;
41865;SDS011;27539;43.222;27.558;2023-04-03T05:05:31;0.50;;;0.50;;
41865;SDS011;27539;43.222;27.558;2023-04-03T05:07:56;0.70;;;0.52;;
41865;SDS011;27539;43.222;27.558;2023-04-03T05:10:22;0.55;;;0.55;;
41865;SDS011;27539;43.222;27.558;2023-04-03T05:12:47;0.40;;;0.40;;
41865;SDS011;27539;43.222;27.558;2023-04-03T05:15:12;0.90;;;0.88;;
41865;SDS011;27539;43.222;27.558;2023-04-03T05:17:38;0.40;;;0.40;;
41865;SDS011;27539;43.222;27.558;2023-04-03T05:20:04;0.50;;;0.50;;
41865;SDS011;27539;43.222;27.558;2023-04-03T05:22:30;1.03;;;0.93;;
41865;SDS011;27539;43.222;27.558;2023-04-03T05:24:56;0.55;;;0.55;;
41865;SDS011;27539;43.222;27.558;2023-04-03T05:27:21;0.80;;;0.80;;
41865;SDS011;27539;43.222;27.558;2023-04-03T05:29:49;0.52;;;0.52;;
41865;SDS011;27539;43.222;27.558;2023-04-03T05:32:14;0.65;;;0.43;;
41865;SDS011;27539;43.222;27.558;2023-04-03T05:34:40;0.50;;;0.50;;
41865;SDS011;27539;43.222;27.558;2023-04-03T05:37:06;0.60;;;0.60;;
41865;SDS011;27539;43.222;27.558;2023-04-03T05:39:31;0.85;;;0.35;;
41865;SDS011;27539;43.222;27.558;2023-04-03T05:41:56;0.50;;;0.50;;
41865;SDS011;27539;43.222;27.558;2023-04-03T05:44:22;0.20;;;0.20;;
41865;SDS011;27539;43.222;27.558;2023-04-03T05:46:47;1.45;;;0.77;;
41865;SDS011;27539;43.222;27.558;2023-04-03T05:49:13;0.88;;;0.70;;
41865;SDS011;27539;43.222;27.558;2023-04-03T05:51:38;0.57;;;0.57;;
41865;SDS011;27539;43.222;27.558;2023-04-03T05:54:24;0.38;;;0.38;;
41865;SDS011;27539;43.222;27.558;2023-04-03T05:56:51;0.63;;;0.63;;
41865;SDS011;27539;43.222;27.558;2023-04-03T05:59:17;0.20;;;0.20;;
41865;SDS011;27539;43.222;27.558;2023-04-03T06:01:44;0.10;;;0.10;;
41865;SDS011;27539;43.222;27.558;2023-04-03T06:04:09;2.65;;;0.82;;
41865;SDS011;27539;43.222;27.558;2023-04-03T06:06:49;0.47;;;0.47;;
41865;SDS011;27539;43.222;27.558;2023-04-03T06:09:22;1.10;;;0.88;;
41865;SDS011;27539;43.222;27.558;2023-04-03T06:11:50;0.70;;;0.70;;
41865;SDS011;27539;43.222;27.558;2023-04-03T06:16:42;1.20;;;1.00;;
41865;SDS011;27539;43.222;27.558;2023-04-03T06:19:08;0.82;;;0.82;;
41865;SDS011;27539;43.222;27.558;2023-04-03T06:21:34;0.70;;;0.70;;
41865;SDS011;27539;43.222;27.558;2023-04-03T06:24:00;13.00;;;1.08;;
41865;SDS011;27539;43.222;27.558;2023-04-03T06:26:27;0.30;;;0.30;;
41865;SDS011;27539;43.222;27.558;2023-04-03T06:28:53;3.40;;;0.60;;
41865;SDS011;27539;43.222;27.558;2023-04-03T06:31:18;0.88;;;0.47;;
41865;SDS011;27539;43.222;27.558;2023-04-03T06:33:44;0.22;;;0.22;;
41865;SDS011;27539;43.222;27.558;2023-04-03T06:36:10;0.65;;;0.65;;
41865;SDS011;27539;43.222;27.558;2023-04-03T06:38:36;1.65;;;0.45;;
41865;SDS011;27539;43.222;27.558;2023-04-03T06:41:02;0.70;;;0.50;;
41865;SDS011;27539;43.222;27.558;2023-04-03T06:43:27;0.88;;;0.63;;
41865;SDS011;27539;43.222;27.558;2023-04-03T06:45:53;0.55;;;0.50;;
41865;SDS011;27539;43.222;27.558;2023-04-03T06:48:18;0.40;;;0.40;;
41865;SDS011;27539;43.222;27.558;2023-04-03T06:50:44;1.23;;;0.60;;
41865;SDS011;27539;43.222;27.558;2023-04-03T06:53:10;0.98;;;0.60;;
41865;SDS011;27539;43.222;27.558;2023-04-03T06:55:36;0.93;;;0.63;;
41865;SDS011;27539;43.222;27.558;2023-04-03T06:58:03;0.30;;;0.30;;
41865;SDS011;27539;43.222;27.558;2023-04-03T07:00:29;0.60;;;0.60;;
41865;SDS011;27539;43.222;27.558;2023-04-03T07:02:55;0.73;;;0.70;;
41865;SDS011;27539;43.222;27.558;2023-04-03T07:05:22;0.57;;;0.57;;
41865;SDS011;27539;43.222;27.558;2023-04-03T07:07:49;0.65;;;0.65;;
41865;SDS011;27539;43.222;27.558;2023-04-03T07:10:15;0.57;;;0.50;;
41865;SDS011;27539;43.222;27.558;2023-04-03T07:12:41;1.65;;;1.27;;
41865;SDS011;27539;43.222;27.558;2023-04-03T07:15:06;0.45;;;0.45;;
41865;SDS011;27539;43.222;27.558;2023-04-03T07:17:33;0.25;;;0.25;;
41865;SDS011;27539;43.222;27.558;2023-04-03T07:19:59;0.30;;;0.30;;
41865;SDS011;27539;43.222;27.558;2023-04-03T07:22:24;0.17;;;0.17;;
41865;SDS011;27539;43.222;27.558;2023-04-03T07:24:50;0.50;;;0.50;;
41865;SDS011;27539;43.222;27.558;2023-04-03T07:27:15;0.30;;;0.30;;
41865;SDS011;27539;43.222;27.558;2023-04-03T07:29:42;0.35;;;0.35;;
41865;SDS011;27539;43.222;27.558;2023-04-03T07:32:09;0.55;;;0.50;;
41865;SDS011;27539;43.222;27.558;2023-04-03T07:34:35;0.40;;;0.40;;
41865;SDS011;27539;43.222;27.558;2023-04-03T07:37:01;0.17;;;0.17;;
41865;SDS011;27539;43.222;27.558;2023-04-03T07:39:27;1.35;;;0.88;;
41865;SDS011;27539;43.222;27.558;2023-04-03T07:41:53;1.02;;;0.70;;
41865;SDS011;27539;43.222;27.558;2023-04-03T07:46:46;0.73;;;0.52;;
41865;SDS011;27539;43.222;27.558;2023-04-03T07:49:12;0.30;;;0.30;;
41865;SDS011;27539;43.222;27.558;2023-04-03T07:51:37;0.25;;;0.25;;
41865;SDS011;27539;43.222;27.558;2023-04-03T07:54:03;0.15;;;0.15;;
41865;SDS011;27539;43.222;27.558;2023-04-03T07:56:29;0.38;;;0.38;;
41865;SDS011;27539;43.222;27.558;2023-04-03T07:58:54;0.68;;;0.68;;
41865;SDS011;27539;43.222;27.558;2023-04-03T08:01:20;0.52;;;0.47;;
41865;SDS011;27539;43.222;27.558;2023-04-03T08:03:46;0.30;;;0.30;;
41865;SDS011;27539;43.222;27.558;2023-04-03T08:06:12;0.38;;;0.38;;
41865;SDS011;27539;43.222;27.558;2023-04-03T08:08:40;0.47;;;0.47;;
41865;SDS011;27539;43.222;27.558;2023-04-03T08:11:05;0.50;;;0.50;;
41865;SDS011;27539;43.222;27.558;2023-04-03T08:13:33;3.75;;;1.15;;
41865;SDS011;27539;43.222;27.558;2023-04-03T08:16:06;0.55;;;0.52;;
41865;SDS011;27539;43.222;27.558;2023-04-03T08:18:33;2.33;;;0.73;;
41865;SDS011;27539;43.222;27.558;2023-04-03T08:20:59;0.43;;;0.40;;
41865;SDS011;27539;43.222;27.558;2023-04-03T08:23:25;3.03;;;0.65;;
41865;SDS011;27539;43.222;27.558;2023-04-03T08:25:51;0.60;;;0.30;;
41865;SDS011;27539;43.222;27.558;2023-04-03T08:28:16;0.52;;;0.35;;
41865;SDS011;27539;43.222;27.558;2023-04-03T08:30:42;0.30;;;0.30;;
41865;SDS011;27539;43.222;27.558;2023-04-03T08:33:07;0.15;;;0.15;;
41865;SDS011;27539;43.222;27.558;2023-04-03T08:35:37;0.50;;;0.50;;
41865;SDS011;27539;43.222;27.558;2023-04-03T08:38:04;0.98;;;0.60;;
41865;SDS011;27539;43.222;27.558;2023-04-03T08:40:29;0.35;;;0.35;;
41865;SDS011;27539;43.222;27.558;2023-04-03T08:45:53;0.75;;;0.65;;
41865;SDS011;27539;43.222;27.558;2023-04-03T08:48:26;5.82;;;0.80;;
41865;SDS011;27539;43.222;27.558;2023-04-03T08:51:08;0.65;;;0.63;;
41865;SDS011;27539;43.222;27.558;2023-04-03T08:56:33;0.57;;;0.57;;
41865;SDS011;27539;43.222;27.558;2023-04-03T08:59:00;0.90;;;0.82;;
41865;SDS011;27539;43.222;27.558;2023-04-03T09:01:36;0.65;;;0.60;;
41865;SDS011;27539;43.222;27.558;2023-04-03T09:04:11;0.38;;;0.28;;
41865;SDS011;27539;43.222;27.558;2023-04-03T09:06:39;0.40;;;0.40;;
41865;SDS011;27539;43.222;27.558;2023-04-03T09:17:31;1.40;;;0.63;;
41865;SDS011;27539;43.222;27.558;2023-04-03T09:20:19;0.20;;;0.20;;
41865;SDS011;27539;43.222;27.558;2023-04-03T09:22:58;0.50;;;0.50;;
41865;SDS011;27539;43.222;27.558;2023-04-03T09:25:27;0.90;;;0.70;;
41865;SDS011;27539;43.222;27.558;2023-04-03T09:27:59;0.45;;;0.45;;
41865;SDS011;27539;43.222;27.558;2023-04-03T09:30:25;0.20;;;0.20;;
41865;SDS011;27539;43.222;27.558;2023-04-03T09:32:52;0.57;;;0.57;;
41865;SDS011;27539;43.222;27.558;2023-04-03T09:35:29;0.57;;;0.57;;
41865;SDS011;27539;43.222;27.558;2023-04-03T09:38:01;0.57;;;0.50;;
41865;SDS011;27539;43.222;27.558;2023-04-03T09:40:37;0.60;;;0.60;;
41865;SDS011;27539;43.222;27.558;2023-04-03T09:50:53;0.20;;;0.20;;
41865;SDS011;27539;43.222;27.558;2023-04-03T09:55:58;1.33;;;0.68;;
41865;SDS011;27539;43.222;27.558;2023-04-03T10:00:58;0.40;;;0.40;;
41865;SDS011;27539;43.222;27.558;2023-04-03T10:03:28;1.27;;;0.60;;
41865;SDS011;27539;43.222;27.558;2023-04-03T10:05:57;0.30;;;0.30;;
41865;SDS011;27539;43.222;27.558;2023-04-03T10:08:24;0.30;;;0.30;;
41865;SDS011;27539;43.222;27.558;2023-04-03T10:13:56;1.00;;;0.65;;
41865;SDS011;27539;43.222;27.558;2023-04-03T10:27:22;1.48;;;0.77;;
41865;SDS011;27539;43.222;27.558;2023-04-03T10:35:44;3.08;;;1.38;;
41865;SDS011;27539;43.222;27.558;2023-04-03T10:46:00;1.63;;;0.88;;
41865;SDS011;27539;43.222;27.558;2023-04-03T10:54:30;2.33;;;1.27;;
41865;SDS011;27539;43.222;27.558;2023-04-03T10:56:57;2.38;;;1.95;;
41865;SDS011;27539;43.222;27.558;2023-04-03T10:59:47;2.10;;;1.75;;
41865;SDS011;27539;43.222;27.558;2023-04-03T11:04:48;0.40;;;0.40;;
41865;SDS011;27539;43.222;27.558;2023-04-03T11:09:52;1.52;;;1.23;;
41865;SDS011;27539;43.222;27.558;2023-04-03T11:12:26;2.53;;;0.75;;
41865;SDS011;27539;43.222;27.558;2023-04-03T11:15:15;1.25;;;1.13;;
41865;SDS011;27539;43.222;27.558;2023-04-03T11:17:48;1.00;;;0.95;;
41865;SDS011;27539;43.222;27.558;2023-04-03T11:22:54;2.55;;;1.35;;
41865;SDS011;27539;43.222;27.558;2023-04-03T11:25:26;2.15;;;0.90;;
41865;SDS011;27539;43.222;27.558;2023-04-03T11:28:01;5.88;;;1.40;;
41865;SDS011;27539;43.222;27.558;2023-04-03T11:30:46;0.50;;;0.50;;
41865;SDS011;27539;43.222;27.558;2023-04-03T11:36:28;0.77;;;0.77;;
41865;SDS011;27539;43.222;27.558;2023-04-03T11:38:59;0.52;;;0.52;;
41865;SDS011;27539;43.222;27.558;2023-04-03T11:41:33;0.75;;;0.75;;
41865;SDS011;27539;43.222;27.558;2023-04-03T11:55:51;0.65;;;0.65;;
41865;SDS011;27539;43.222;27.558;2023-04-03T12:05:48;1.58;;;0.90;;
41865;SDS011;27539;43.222;27.558;2023-04-03T12:16:24;1.50;;;1.02;;
41865;SDS011;27539;43.222;27.558;2023-04-03T12:21:22;0.93;;;0.93;;
41865;SDS011;27539;43.222;27.558;2023-04-03T12:29:10;3.00;;;1.58;;
41865;SDS011;27539;43.222;27.558;2023-04-03T12:40:37;1.60;;;0.68;;
41865;SDS011;27539;43.222;27.558;2023-04-03T12:45:40;1.05;;;1.02;;
41865;SDS011;27539;43.222;27.558;2023-04-03T12:48:17;1.05;;;1.00;;
41865;SDS011;27539;43.222;27.558;2023-04-03T12:50:48;1.05;;;0.80;;
41865;SDS011;27539;43.222;27.558;2023-04-03T12:53:18;1.33;;;1.15;;
41865;SDS011;27539;43.222;27.558;2023-04-03T12:55:49;2.10;;;0.77;;
41865;SDS011;27539;43.222;27.558;2023-04-03T12:58:23;2.25;;;1.20;;
41865;SDS011;27539;43.222;27.558;2023-04-03T13:00:59;1.45;;;1.35;;
41865;SDS011;27539;43.222;27.558;2023-04-03T13:03:26;1.50;;;1.08;;
41865;SDS011;27539;43.222;27.558;2023-04-03T13:05:54;3.37;;;2.00;;
41865;SDS011;27539;43.222;27.558;2023-04-03T13:08:22;5.00;;;2.13;;
41865;SDS011;27539;43.222;27.558;2023-04-03T13:10:53;0.98;;;0.93;;
41865;SDS011;27539;43.222;27.558;2023-04-03T13:13:31;2.65;;;1.95;;
41865;SDS011;27539;43.222;27.558;2023-04-03T13:15:57;2.53;;;1.75;;
41865;SDS011;27539;43.222;27.558;2023-04-03T13:20:53;2.30;;;1.52;;
41865;SDS011;27539;43.222;27.558;2023-04-03T13:23:24;3.70;;;1.92;;
41865;SDS011;27539;43.222;27.558;2023-04-03T13:25:50;3.35;;;2.28;;
41865;SDS011;27539;43.222;27.558;2023-04-03T13:28:20;7.88;;;1.27;;
41865;SDS011;27539;43.222;27.558;2023-04-03T13:41:38;1.40;;;1.30;;
41865;SDS011;27539;43.222;27.558;2023-04-03T13:44:16;1.27;;;1.25;;
41865;SDS011;27539;43.222;27.558;2023-04-03T13:46:42;2.45;;;1.85;;
41865;SDS011;27539;43.222;27.558;2023-04-03T13:55:01;5.90;;;4.53;;
41865;SDS011;27539;43.222;27.558;2023-04-03T13:57:36;2.78;;;2.15;;
41865;SDS011;27539;43.222;27.558;2023-04-03T14:00:18;3.30;;;2.75;;
41865;SDS011;27539;43.222;27.558;2023-04-03T14:02:46;3.78;;;2.40;;
41865;SDS011;27539;43.222;27.558;2023-04-03T14:05:13;4.28;;;2.05;;
41865;SDS011;27539;43.222;27.558;2023-04-03T14:07:39;2.38;;;1.63;;
41865;SDS011;27539;43.222;27.558;2023-04-03T14:10:05;2.33;;;2.00;;
41865;SDS011;27539;43.222;27.558;2023-04-03T14:12:32;4.90;;;1.67;;
41865;SDS011;27539;43.222;27.558;2023-04-03T14:15:03;2.30;;;1.83;;
41865;SDS011;27539;43.222;27.558;2023-04-03T14:17:49;4.47;;;1.25;;
41865;SDS011;27539;43.222;27.558;2023-04-03T14:20:17;2.17;;;1.23;;
41865;SDS011;27539;43.222;27.558;2023-04-03T14:22:45;6.68;;;3.35;;
41865;SDS011;27539;43.222;27.558;2023-04-03T14:25:12;3.42;;;2.00;;
41865;SDS011;27539;43.222;27.558;2023-04-03T14:27:41;6.18;;;2.35;;
41865;SDS011;27539;43.222;27.558;2023-04-03T14:30:09;3.72;;;2.67;;
41865;SDS011;27539;43.222;27.558;2023-04-03T14:32:40;2.25;;;1.30;;
41865;SDS011;27539;43.222;27.558;2023-04-03T14:35:06;14.85;;;2.83;;
41865;SDS011;27539;43.222;27.558;2023-04-03T14:37:32;3.55;;;2.85;;
41865;SDS011;27539;43.222;27.558;2023-04-03T14:39:59;10.43;;;2.80;;
41865;SDS011;27539;43.222;27.558;2023-04-03T14:42:30;2.80;;;1.85;;
41865;SDS011;27539;43.222;27.558;2023-04-03T14:44:58;1.38;;;1.27;;
41865;SDS011;27539;43.222;27.558;2023-04-03T14:47:26;2.45;;;1.75;;
41865;SDS011;27539;43.222;27.558;2023-04-03T14:49:53;2.00;;;1.20;;
41865;SDS011;27539;43.222;27.558;2023-04-03T14:52:29;2.92;;;2.10;;
41865;SDS011;27539;43.222;27.558;2023-04-03T14:54:57;3.10;;;2.90;;
41865;SDS011;27539;43.222;27.558;2023-04-03T14:57:25;4.05;;;2.83;;
41865;SDS011;27539;43.222;27.558;2023-04-03T14:59:52;2.17;;;1.60;;
41865;SDS011;27539;43.222;27.558;2023-04-03T15:05:13;3.60;;;3.15;;
41865;SDS011;27539;43.222;27.558;2023-04-03T15:07:43;11.25;;;4.38;;
41865;SDS011;27539;43.222;27.558;2023-04-03T15:12:45;2.75;;;2.50;;
41865;SDS011;27539;43.222;27.558;2023-04-03T15:15:11;5.13;;;2.28;;
41865;SDS011;27539;43.222;27.558;2023-04-03T15:17:37;3.88;;;2.70;;
41865;SDS011;27539;43.222;27.558;2023-04-03T15:20:05;3.53;;;1.95;;
41865;SDS011;27539;43.222;27.558;2023-04-03T15:22:40;4.63;;;3.42;;
41865;SDS011;27539;43.222;27.558;2023-04-03T15:25:06;2.83;;;2.63;;
41865;SDS011;27539;43.222;27.558;2023-04-03T15:27:32;4.22;;;2.35;;
41865;SDS011;27539;43.222;27.558;2023-04-03T15:29:58;4.10;;;3.13;;
41865;SDS011;27539;43.222;27.558;2023-04-03T15:32:23;4.88;;;2.53;;
41865;SDS011;27539;43.222;27.558;2023-04-03T15:34:49;6.15;;;2.75;;
41865;SDS011;27539;43.222;27.558;2023-04-03T15:37:14;4.57;;;2.88;;
41865;SDS011;27539;43.222;27.558;2023-04-03T15:39:40;2.33;;;2.17;;
41865;SDS011;27539;43.222;27.558;2023-04-03T15:42:05;2.30;;;2.10;;
41865;SDS011;27539;43.222;27.558;2023-04-03T15:44:32;22.90;;;2.72;;
41865;SDS011;27539;43.222;27.558;2023-04-03T15:46:58;4.63;;;3.53;;
41865;SDS011;27539;43.222;27.558;2023-04-03T15:49:24;17.70;;;7.77;;
41865;SDS011;27539;43.222;27.558;2023-04-03T15:51:51;28.57;;;9.50;;
41865;SDS011;27539;43.222;27.558;2023-04-03T15:54:17;9.98;;;4.75;;
41865;SDS011;27539;43.222;27.558;2023-04-03T15:56:42;3.67;;;2.08;;
41865;SDS011;27539;43.222;27.558;2023-04-03T15:59:08;4.65;;;3.38;;
41865;SDS011;27539;43.222;27.558;2023-04-03T16:01:33;4.47;;;2.90;;
41865;SDS011;27539;43.222;27.558;2023-04-03T16:04:00;2.70;;;2.23;;
41865;SDS011;27539;43.222;27.558;2023-04-03T16:06:26;2.27;;;2.10;;
41865;SDS011;27539;43.222;27.558;2023-04-03T16:08:54;4.15;;;3.38;;
41865;SDS011;27539;43.222;27.558;2023-04-03T16:11:22;4.50;;;3.17;;
41865;SDS011;27539;43.222;27.558;2023-04-03T16:13:49;2.28;;;2.08;;
41865;SDS011;27539;43.222;27.558;2023-04-03T16:16:14;5.15;;;2.33;;
41865;SDS011;27539;43.222;27.558;2023-04-03T16:18:40;3.42;;;2.63;;
41865;SDS011;27539;43.222;27.558;2023-04-03T16:21:06;3.03;;;2.08;;
41865;SDS011;27539;43.222;27.558;2023-04-03T16:23:33;6.13;;;1.85;;
41865;SDS011;27539;43.222;27.558;2023-04-03T16:25:58;9.05;;;3.40;;
41865;SDS011;27539;43.222;27.558;2023-04-03T16:28:24;57.03;;;20.27;;
41865;SDS011;27539;43.222;27.558;2023-04-03T16:30:50;21.33;;;10.65;;
41865;SDS011;27539;43.222;27.558;2023-04-03T16:33:15;34.65;;;13.63;;
41865;SDS011;27539;43.222;27.558;2023-04-03T16:35:41;10.82;;;6.70;;
41865;SDS011;27539;43.222;27.558;2023-04-03T16:38:08;5.57;;;4.55;;
41865;SDS011;27539;43.222;27.558;2023-04-03T16:40:33;11.68;;;7.10;;
41865;SDS011;27539;43.222;27.558;2023-04-03T16:43:00;23.90;;;10.52;;
41865;SDS011;27539;43.222;27.558;2023-04-03T16:45:26;9.00;;;4.68;;
41865;SDS011;27539;43.222;27.558;2023-04-03T16:47:51;13.32;;;4.70;;
41865;SDS011;27539;43.222;27.558;2023-04-03T16:50:17;8.85;;;6.32;;
41865;SDS011;27539;43.222;27.558;2023-04-03T16:52:45;11.93;;;3.45;;
41865;SDS011;27539;43.222;27.558;2023-04-03T16:55:11;4.03;;;2.38;;
41865;SDS011;27539;43.222;27.558;2023-04-03T16:57:37;5.28;;;3.33;;
41865;SDS011;27539;43.222;27.558;2023-04-03T17:00:02;2.28;;;1.80;;
41865;SDS011;27539;43.222;27.558;2023-04-03T17:02:29;4.45;;;2.58;;
41865;SDS011;27539;43.222;27.558;2023-04-03T17:04:55;4.38;;;3.17;;
41865;SDS011;27539;43.222;27.558;2023-04-03T17:07:21;5.45;;;3.97;;
41865;SDS011;27539;43.222;27.558;2023-04-03T17:09:48;5.95;;;3.83;;
41865;SDS011;27539;43.222;27.558;2023-04-03T17:12:14;4.22;;;2.72;;
41865;SDS011;27539;43.222;27.558;2023-04-03T17:14:41;8.98;;;2.47;;